Terminal Aerodrome Forecast
Issued by NWS

Home | Current Version | Previous Version | Text Only | Print | Product List | Glossary On
Versions: 1 2 3 4 5 6 7 8 9 10 11 12 13 14 15 16 17 18 19 20 21
000
FTAK31 PAJN 092300
TAFASI
TAF
PASI 092320Z 1000/1024 24005KT 2SM -SHRA BR SCT006 BKN015 OVC025
      TEMPO 1000/1003 P6SM -SHRA FEW005 SCT015 BKN025
     FM100300 27005KT 6SM BR VCSH FEW005 BKN015 OVC025
     FM101000 32004KT 4SM BR SCT003 OVC015
     FM101800 27004KT P6SM SCT015 BKN025=

USA.gov is the U.S. government's official web portal to all federal, state and local government web resources and services.